Terminal Aerodrome Forecast
Issued by NWS

Home | Current Version | Previous Version | Text Only | Print | Product List | Glossary On
Versions: 1 2 3 4 5 6 7 8 9 10 11 12 13 14 15
208
FTUS43 KLSX 190958 AAB
TAFCPS
TAF AMD
KCPS 190958Z 1910/2006 VRB03KT 3/4SM BR BKN005
      TEMPO 1910/1913 1/4SM FG VV001
     FM191400 VRB04KT P6SM SCT030
     FM191800 23006KT P6SM SCT040
     FM200000 VRB04KT P6SM SKC=

USA.gov is the U.S. government's official web portal to all federal, state and local government web resources and services.